Time;durP1;ratioP1;P1;durP2;ratioP2;P2;SDS_P1;SDS_P2;PMS_P1;PMS_P2;Temp;Humidity;BMP_temperature;BMP_pressure;BME280_temperature;BME280_humidity;BME280_pressure;Samples;Min_cycle;Max_cycle;Signal;HPM_P1;HPM_P2
2024/02/16 00:02:02;;;;;;;0.63;0.63;;;;;;;6.61;90.62;98379.78;4912742;29;20040;-92
2024/02/16 00:04:27;;;;;;;0.60;0.60;;;;;;;6.59;91.27;98384.13;4915495;29;20555;-91
2024/02/16 00:06:53;;;;;;;0.68;0.68;;;;;;;6.60;91.08;98377.97;4928536;28;20036;-91
2024/02/16 00:09:18;;;;;;;0.60;0.60;;;;;;;6.66;89.12;98376.50;4929429;29;20063;-91
2024/02/16 00:11:44;;;;;;;0.70;0.70;;;;;;;6.64;88.08;98379.91;4925832;29;20033;-92
2024/02/16 00:14:10;;;;;;;0.60;0.60;;;;;;;6.60;88.70;98389.47;4915112;29;20123;-91
2024/02/16 00:16:36;;;;;;;0.60;0.60;;;;;;;6.67;88.57;98378.28;4920832;28;20112;-92
2024/02/16 00:19:05;;;;;;;0.70;0.70;;;;;;;6.68;88.52;98384.50;4904074;29;20483;-92
2024/02/16 00:21:30;;;;;;;0.60;0.60;;;;;;;6.60;88.51;98385.94;4902777;29;20035;-91
2024/02/16 00:23:59;;;;;;;0.60;0.60;;;;;;;6.63;89.18;98379.00;4916156;29;20036;-93
2024/02/16 00:26:25;;;;;;;0.60;0.60;;;;;;;6.70;89.21;98380.13;4900299;29;20056;-93
2024/02/16 00:28:51;;;;;;;0.70;0.70;;;;;;;6.70;89.00;98372.19;4915872;29;20024;-93
2024/02/16 00:31:17;;;;;;;0.60;0.60;;;;;;;6.75;88.74;98377.66;4931739;29;20123;-93
2024/02/16 00:33:42;;;;;;;0.60;0.60;;;;;;;6.89;88.50;98377.34;4915318;29;20043;-94
2024/02/16 00:36:09;;;;;;;0.70;0.70;;;;;;;6.86;88.36;98371.94;4915541;29;20032;-93
2024/02/16 00:38:35;;;;;;;;;;;;;;;6.95;87.82;98363.44;4899000;29;20043;-91
2024/02/16 00:41:01;;;;;;;0.70;0.70;;;;;;;6.92;87.69;98373.91;4914080;29;19926;-92
2024/02/16 00:43:28;;;;;;;0.70;0.70;;;;;;;6.89;87.63;98366.72;4931203;29;20032;-92
2024/02/16 00:45:53;;;;;;;0.70;0.70;;;;;;;7.03;88.57;98369.91;4898231;29;20032;-92
2024/02/16 00:48:19;;;;;;;0.60;0.60;;;;;;;7.09;88.70;98358.59;4916140;29;20040;-92
2024/02/16 00:50:44;;;;;;;0.60;0.60;;;;;;;7.04;88.94;98362.84;4913638;29;20039;-92
2024/02/16 00:53:10;;;;;;;0.60;0.60;;;;;;;7.03;89.08;98359.28;4925025;29;20406;-93
2024/02/16 00:55:37;;;;;;;0.50;0.50;;;;;;;6.98;88.96;98363.53;4913638;29;20056;-92
2024/02/16 00:58:02;;;;;;;0.60;0.60;;;;;;;7.03;89.06;98366.34;4912980;29;20036;-91
2024/02/16 01:00:28;;;;;;;0.70;0.70;;;;;;;6.98;89.68;98359.97;4914763;29;20297;-91
2024/02/16 01:02:53;;;;;;;0.60;0.60;;;;;;;6.93;89.77;98366.00;4927271;29;20048;-92
2024/02/16 01:05:19;;;;;;;0.60;0.60;;;;;;;7.05;89.42;98367.34;4930501;29;20072;-91
2024/02/16 01:07:45;;;;;;;0.70;0.70;;;;;;;7.00;89.29;98369.81;4918342;29;20043;-93
2024/02/16 01:10:12;;;;;;;0.70;0.70;;;;;;;6.96;89.65;98375.84;4902895;29;20044;-92
2024/02/16 01:12:38;;;;;;;;;;;;;;;6.87;89.90;98370.19;4930353;29;20091;-93
2024/02/16 01:15:05;;;;;;;0.70;0.70;;;;;;;6.83;90.34;98368.25;4931192;29;19911;-91
2024/02/16 01:17:32;;;;;;;0.70;0.70;;;;;;;6.84;90.05;98363.00;4931996;29;20051;-91
2024/02/16 01:19:58;;;;;;;0.68;0.68;;;;;;;6.97;89.79;98376.75;4931656;29;20051;-90
2024/02/16 01:22:24;;;;;;;0.60;0.60;;;;;;;6.96;89.48;98370.53;4911914;29;20036;-91
2024/02/16 01:24:49;;;;;;;0.60;0.60;;;;;;;6.99;89.34;98372.38;4942755;29;20055;-91
2024/02/16 01:27:16;;;;;;;0.60;0.60;;;;;;;6.92;89.28;98366.84;4913751;29;20040;-91
2024/02/16 01:29:41;;;;;;;0.70;0.70;;;;;;;6.90;89.14;98365.91;4916973;29;20034;-93
2024/02/16 01:32:07;;;;;;;0.60;0.60;;;;;;;7.00;88.30;98350.34;4933754;29;20050;-90
2024/02/16 01:34:33;;;;;;;0.60;0.60;;;;;;;6.96;88.26;98345.78;4937497;29;20134;-90
2024/02/16 01:36:58;;;;;;;0.70;0.70;;;;;;;6.88;88.58;98359.63;4952191;29;20536;-92
2024/02/16 01:39:24;;;;;;;0.60;0.60;;;;;;;7.01;88.82;98360.09;4932458;29;20119;-91
2024/02/16 01:41:50;;;;;;;0.70;0.70;;;;;;;7.02;88.58;98359.25;4931086;29;20044;-91
2024/02/16 01:44:17;;;;;;;0.70;0.70;;;;;;;6.99;88.54;98357.38;4942302;29;20036;-93
2024/02/16 01:46:43;;;;;;;0.70;0.70;;;;;;;6.97;88.70;98364.38;4903685;29;20032;-93
2024/02/16 01:49:10;;;;;;;0.70;0.70;;;;;;;7.07;88.93;98368.28;4926808;29;20699;-92
2024/02/16 01:51:36;;;;;;;0.60;0.60;;;;;;;7.24;88.46;98366.25;4923341;29;20040;-93
2024/02/16 01:54:02;;;;;;;0.70;0.70;;;;;;;7.22;88.53;98366.19;4939686;29;20505;-91
2024/02/16 01:56:29;;;;;;;0.60;0.60;;;;;;;7.23;88.81;98377.69;4924596;29;20032;-92
2024/02/16 01:58:55;;;;;;;0.70;0.70;;;;;;;7.25;88.31;98376.91;4903727;29;20032;-91
2024/02/16 02:01:22;;;;;;;0.70;0.70;;;;;;;7.12;89.12;98380.84;4904949;29;20047;-92
2024/02/16 02:03:49;;;;;;;0.60;0.60;;;;;;;7.03;89.02;98375.22;4897933;29;20043;-93
2024/02/16 02:06:16;;;;;;;0.70;0.70;;;;;;;6.96;89.38;98364.34;4918815;29;20032;-92
2024/02/16 02:08:41;;;;;;;0.70;0.70;;;;;;;6.93;89.46;98366.00;4911092;29;20035;-91
2024/02/16 02:11:07;;;;;;;0.70;0.70;;;;;;;6.85;89.47;98370.16;4918124;29;20040;-89
2024/02/16 02:13:32;;;;;;;0.60;0.60;;;;;;;6.83;89.84;98368.25;4924972;29;20048;-90
2024/02/16 02:15:59;;;;;;;0.60;0.60;;;;;;;6.81;89.93;98364.66;4924843;29;20048;-92
2024/02/16 02:18:26;;;;;;;0.70;0.70;;;;;;;6.82;89.97;98362.06;4931098;29;20032;-92
2024/02/16 02:20:53;;;;;;;0.60;0.60;;;;;;;6.90;89.85;98362.38;4901059;29;20040;-91
2024/02/16 02:23:19;;;;;;;0.70;0.70;;;;;;;6.93;89.70;98360.69;4917820;29;20123;-92
2024/02/16 02:25:49;;;;;;;0.63;0.63;;;;;;;6.91;89.51;98346.50;4915894;29;20036;-93
2024/02/16 02:28:15;;;;;;;0.63;0.63;;;;;;;6.92;89.63;98345.66;4901536;29;20048;-93
2024/02/16 02:30:41;;;;;;;0.60;0.60;;;;;;;7.01;89.00;98349.50;4923679;29;20044;-92
2024/02/16 02:33:07;;;;;;;0.60;0.60;;;;;;;7.15;89.40;98342.94;4928143;29;20079;-92
2024/02/16 02:35:33;;;;;;;0.70;0.70;;;;;;;7.12;89.16;98338.41;4929284;29;20592;-92
2024/02/16 02:37:58;;;;;;;0.60;0.60;;;;;;;7.21;89.40;98343.16;4930062;29;20142;-92
2024/02/16 02:40:25;;;;;;;0.60;0.60;;;;;;;7.23;89.12;98329.94;4921636;29;20032;-92
2024/02/16 02:42:51;;;;;;;0.60;0.60;;;;;;;7.12;89.45;98338.41;4939674;29;20036;-92
2024/02/16 02:45:17;;;;;;;0.60;0.60;;;;;;;7.19;89.37;98324.53;4932770;29;20039;-92
2024/02/16 02:47:43;;;;;;;0.63;0.63;;;;;;;7.18;89.01;98322.72;4901000;29;20525;-93
2024/02/16 02:50:09;;;;;;;0.60;0.60;;;;;;;7.15;89.50;98321.72;4915431;29;20044;-90
2024/02/16 02:52:37;;;;;;;0.60;0.60;;;;;;;7.19;89.30;98319.22;4885989;29;20063;-92
2024/02/16 02:55:05;;;;;;;0.70;0.70;;;;;;;7.18;89.09;98311.19;4912602;29;20051;-91
2024/02/16 02:57:35;;;;;;;0.60;0.60;;;;;;;7.25;89.18;98307.94;4901829;29;20063;-92
2024/02/16 03:00:11;;;;;;;0.60;0.60;;;;;;;7.21;88.99;98311.31;4914613;29;20036;-92
2024/02/16 03:02:41;;;;;;;0.60;0.60;;;;;;;7.30;88.69;98313.41;4914001;29;20036;-92
2024/02/16 03:05:07;;;;;;;0.70;0.70;;;;;;;7.39;88.70;98309.31;4900658;29;20035;-91
2024/02/16 03:07:33;;;;;;;0.60;0.60;;;;;;;7.45;88.12;98309.50;4898555;29;20044;-92
2024/02/16 03:09:59;;;;;;;0.60;0.60;;;;;;;7.42;88.32;98311.16;4916565;29;20036;-91
2024/02/16 03:12:25;;;;;;;0.60;0.60;;;;;;;7.28;88.85;98305.41;4916799;29;20043;-92
2024/02/16 03:14:51;;;;;;;0.60;0.60;;;;;;;7.27;89.02;98306.22;4896891;29;20491;-91
2024/02/16 03:17:18;;;;;;;0.63;0.63;;;;;;;7.24;89.13;98300.81;4918084;29;20043;-93
2024/02/16 03:19:46;;;;;;;0.60;0.60;;;;;;;7.33;89.22;98305.53;4916242;29;20076;-92
2024/02/16 03:22:13;;;;;;;0.60;0.60;;;;;;;7.36;88.90;98317.16;4899374;29;20129;-93
2024/02/16 03:24:39;;;;;;;0.70;0.70;;;;;;;7.44;88.75;98314.78;4936903;29;20031;-92
2024/02/16 03:27:05;;;;;;;0.60;0.60;;;;;;;7.48;88.76;98315.81;4902769;29;20083;-93
2024/02/16 03:29:30;;;;;;;0.60;0.60;;;;;;;7.51;88.51;98315.88;4902704;29;20091;-92
2024/02/16 03:31:56;;;;;;;0.60;0.60;;;;;;;7.45;88.80;98311.28;4917653;29;20071;-92
2024/02/16 03:34:24;;;;;;;0.60;0.60;;;;;;;7.42;89.50;98314.72;4917541;29;20047;-92
2024/02/16 03:36:50;;;;;;;0.60;0.60;;;;;;;7.35;90.08;98314.47;4917465;29;20031;-92
2024/02/16 03:39:19;;;;;;;0.60;0.60;;;;;;;7.36;89.99;98311.84;4914353;29;20131;-92
2024/02/16 03:41:49;;;;;;;0.70;0.70;;;;;;;7.38;90.16;98317.22;4927819;29;20047;-93
2024/02/16 03:44:17;;;;;;;0.60;0.60;;;;;;;7.46;90.02;98311.31;4910417;29;20044;-92
2024/02/16 03:46:43;;;;;;;0.60;0.60;;;;;;;7.51;89.68;98322.09;4898642;29;20126;-91
2024/02/16 03:49:10;;;;;;;0.60;0.60;;;;;;;7.47;90.32;98314.88;4899422;29;20064;-91
2024/02/16 03:51:36;;;;;;;0.70;0.70;;;;;;;7.35;90.46;98312.72;4896599;29;20087;-91
2024/02/16 03:54:03;;;;;;;0.60;0.60;;;;;;;7.35;90.58;98320.66;4914331;29;20083;-91
2024/02/16 03:56:30;;;;;;;0.60;0.60;;;;;;;7.44;90.18;98331.59;4916571;29;20761;-92
2024/02/16 03:58:55;;;;;;;0.70;0.70;;;;;;;7.43;89.82;98329.81;4916953;29;20455;-92
2024/02/16 04:01:22;;;;;;;0.70;0.70;;;;;;;7.33;90.14;98327.69;4931434;29;20527;-91
2024/02/16 04:03:49;;;;;;;0.60;0.60;;;;;;;7.19;90.34;98339.56;4916552;29;20043;-91
2024/02/16 04:06:17;;;;;;;0.70;0.70;;;;;;;7.13;91.14;98339.31;4914668;29;20051;-91
2024/02/16 04:08:43;;;;;;;0.70;0.70;;;;;;;7.07;91.48;98341.75;4915899;29;20183;-91
2024/02/16 04:11:11;;;;;;;0.60;0.60;;;;;;;7.00;91.98;98353.00;4900285;29;20135;-91
2024/02/16 04:13:37;;;;;;;0.57;0.57;;;;;;;6.94;92.17;98348.34;4915159;29;20032;-91
2024/02/16 04:16:04;;;;;;;0.70;0.70;;;;;;;6.97;92.69;98342.25;4933198;29;20063;-91
2024/02/16 04:18:29;;;;;;;0.60;0.60;;;;;;;6.89;92.96;98344.63;4917653;29;20115;-91
2024/02/16 04:20:58;;;;;;;0.60;0.60;;;;;;;6.84;92.87;98344.44;4905754;29;20055;-89
2024/02/16 04:23:23;;;;;;;0.60;0.60;;;;;;;6.94;93.09;98335.97;4926262;29;20020;-92
2024/02/16 04:25:50;;;;;;;0.60;0.60;;;;;;;7.00;92.92;98340.63;4934686;29;20044;-92
2024/02/16 04:28:18;;;;;;;0.68;0.68;;;;;;;6.98;92.56;98338.75;4915070;29;20043;-92
2024/02/16 04:30:44;;;;;;;0.60;0.60;;;;;;;6.95;92.49;98336.91;4911932;29;20040;-93
2024/02/16 04:33:10;;;;;;;0.60;0.60;;;;;;;6.90;92.97;98338.50;4917485;29;20051;-94
2024/02/16 04:35:36;;;;;;;0.70;0.70;;;;;;;6.88;92.97;98334.88;4932075;29;20047;-93
2024/02/16 04:38:02;;;;;;;0.60;0.60;;;;;;;6.83;93.11;98329.38;4912658;29;20024;-91
2024/02/16 04:40:28;;;;;;;0.65;0.65;;;;;;;6.82;93.27;98347.91;4922073;29;20062;-93
2024/02/16 04:42:53;;;;;;;0.60;0.60;;;;;;;6.77;93.72;98339.78;4916060;29;20047;-93
2024/02/16 04:45:20;;;;;;;0.70;0.70;;;;;;;6.84;93.49;98344.44;4927735;29;20070;-93
2024/02/16 04:47:56;;;;;;;0.70;0.70;;;;;;;6.86;93.79;98350.72;4901273;29;20339;-93
2024/02/16 04:50:25;;;;;;;0.60;0.60;;;;;;;6.92;93.41;98350.94;4916603;29;20048;-91
2024/02/16 04:52:53;;;;;;;0.68;0.68;;;;;;;7.04;93.12;98346.94;4913613;29;20087;-92
2024/02/16 04:55:19;;;;;;;0.70;0.70;;;;;;;7.14;92.75;98347.34;4900624;29;20074;-92
2024/02/16 04:57:53;;;;;;;0.60;0.60;;;;;;;7.16;92.30;98347.41;4901337;29;20083;-91
2024/02/16 05:00:20;;;;;;;0.68;0.68;;;;;;;7.20;91.87;98344.91;4919394;29;20071;-93
2024/02/16 05:02:47;;;;;;;0.70;0.70;;;;;;;7.23;91.29;98348.50;4926916;29;20451;-94
2024/02/16 05:05:12;;;;;;;0.63;0.63;;;;;;;7.24;91.31;98361.84;4908395;29;20036;-91
2024/02/16 05:07:38;;;;;;;0.60;0.60;;;;;;;7.26;90.82;98357.47;4950653;29;20032;-90
2024/02/16 05:10:08;;;;;;;0.60;0.60;;;;;;;7.30;90.75;98351.44;4935425;29;20040;-94
2024/02/16 05:12:34;;;;;;;0.60;0.60;;;;;;;7.31;90.80;98358.56;4918487;29;20044;-92
2024/02/16 05:15:00;;;;;;;0.68;0.68;;;;;;;7.34;90.54;98365.72;4931985;29;20032;-92
2024/02/16 05:17:26;;;;;;;0.60;0.60;;;;;;;7.32;90.88;98356.78;4919987;29;20624;-92
2024/02/16 05:19:53;;;;;;;0.60;0.60;;;;;;;7.32;90.77;98355.03;4914930;29;20390;-91
2024/02/16 05:22:21;;;;;;;0.63;0.63;;;;;;;7.33;90.69;98359.53;4933567;29;20040;-93
2024/02/16 05:24:49;;;;;;;0.60;0.60;;;;;;;7.36;90.29;98353.41;4910707;29;20402;-91
2024/02/16 05:27:15;;;;;;;0.60;0.60;;;;;;;7.26;91.01;98356.59;4903254;29;20050;-91
2024/02/16 05:29:41;;;;;;;0.60;0.60;;;;;;;7.42;90.10;98358.94;4903433;29;20035;-90
2024/02/16 05:32:06;;;;;;;0.60;0.60;;;;;;;7.42;89.87;98359.81;4932745;29;20044;-92
2024/02/16 05:34:37;;;;;;;0.60;0.60;;;;;;;7.45;89.75;98362.59;4917575;29;20055;-93
2024/02/16 05:37:09;;;;;;;0.60;0.60;;;;;;;7.46;89.75;98371.47;4915868;29;20040;-93
2024/02/16 05:39:53;;;;;;;0.60;0.60;;;;;;;7.43;90.01;98372.28;4923549;29;20056;-92
2024/02/16 05:42:21;;;;;;;0.70;0.70;;;;;;;7.32;90.65;98363.00;4917208;29;20051;-93
2024/02/16 05:44:46;;;;;;;0.70;0.70;;;;;;;7.29;90.84;98360.25;4917630;29;20372;-92
2024/02/16 05:47:12;;;;;;;0.60;0.60;;;;;;;7.26;91.17;98362.78;4919503;29;20055;-93
2024/02/16 05:49:38;;;;;;;0.60;0.60;;;;;;;7.27;90.91;98367.25;4930231;29;20051;-91
2024/02/16 05:52:17;;;;;;;0.60;0.60;;;;;;;7.42;90.90;98365.13;4915494;29;20035;-93
2024/02/16 05:54:50;;;;;;;0.60;0.60;;;;;;;7.35;90.79;98371.09;4897123;29;20100;-92
2024/02/16 05:57:16;;;;;;;0.60;0.60;;;;;;;7.37;90.58;98371.13;4918205;29;20072;-92
2024/02/16 05:59:42;;;;;;;0.68;0.68;;;;;;;7.37;91.28;98374.69;4915962;29;20048;-93
2024/02/16 06:02:11;;;;;;;0.60;0.60;;;;;;;7.35;90.56;98380.81;4901279;29;20039;-92
2024/02/16 06:04:40;;;;;;;0.60;0.60;;;;;;;7.33;91.09;98378.09;4918903;29;20059;-92
2024/02/16 06:07:05;;;;;;;0.60;0.60;;;;;;;7.32;91.28;98378.03;4911789;29;20084;-92
2024/02/16 06:09:33;;;;;;;0.60;0.60;;;;;;;7.33;91.23;98382.47;4907416;29;20032;-92
2024/02/16 06:12:04;;;;;;;0.60;0.60;;;;;;;7.38;90.71;98375.63;4903398;29;20108;-91
2024/02/16 06:14:36;;;;;;;0.60;0.60;;;;;;;7.43;90.35;98382.00;4923052;29;20043;-92
2024/02/16 06:17:02;;;;;;;0.57;0.57;;;;;;;7.36;90.14;98385.25;4923643;29;20067;-93
2024/02/16 06:19:27;;;;;;;0.60;0.60;;;;;;;7.26;90.50;98381.38;4929740;29;20041;-90
2024/02/16 06:21:58;;;;;;;0.60;0.60;;;;;;;7.22;90.71;98387.41;4935301;29;20036;-91
2024/02/16 06:24:24;;;;;;;0.60;0.60;;;;;;;7.12;91.03;98395.88;4932084;29;20023;-92
2024/02/16 06:26:54;;;;;;;0.70;0.70;;;;;;;7.00;91.60;98399.00;4948348;29;20076;-91
2024/02/16 06:29:23;;;;;;;0.68;0.68;;;;;;;6.88;91.97;98407.38;4916784;29;20035;-93
2024/02/16 06:31:48;;;;;;;0.60;0.60;;;;;;;7.02;92.20;98414.94;4933855;29;20124;-95
2024/02/16 06:34:15;;;;;;;0.60;0.60;;;;;;;7.07;91.83;98413.38;4930301;29;20039;-93
2024/02/16 06:36:43;;;;;;;0.60;0.60;;;;;;;6.89;92.51;98417.13;4918546;29;20047;-93
2024/02/16 06:39:11;;;;;;;0.70;0.70;;;;;;;6.74;93.14;98421.84;4917851;29;20050;-92
2024/02/16 06:41:47;;;;;;;0.60;0.60;;;;;;;6.78;93.11;98430.81;4919234;29;20063;-95
2024/02/16 06:44:13;;;;;;;0.60;0.60;;;;;;;6.73;93.94;98427.09;4935024;29;20036;-93
2024/02/16 06:46:47;;;;;;;0.50;0.50;;;;;;;6.66;93.87;98425.97;4904326;29;20100;-91
2024/02/16 06:49:19;;;;;;;0.60;0.60;;;;;;;6.71;94.15;98427.03;4946588;29;20040;-92
2024/02/16 06:51:48;;;;;;;0.60;0.60;;;;;;;6.70;94.23;98438.47;4932028;29;20044;-95
2024/02/16 06:54:14;;;;;;;0.70;0.70;;;;;;;6.69;94.29;98436.66;4929268;29;20035;-95
2024/02/16 06:56:55;;;;;;;0.60;0.60;;;;;;;6.69;94.13;98436.66;4920947;29;20112;-93
2024/02/16 06:59:21;;;;;;;0.70;0.70;;;;;;;6.70;93.72;98435.81;4910291;29;20044;-95
2024/02/16 07:01:59;;;;;;;0.70;0.70;;;;;;;6.74;93.68;98439.50;4926827;29;20027;-91
2024/02/16 07:04:28;;;;;;;0.60;0.60;;;;;;;6.84;93.31;98439.91;4940129;29;20055;-94
2024/02/16 07:06:57;;;;;;;0.70;0.70;;;;;;;6.85;93.42;98444.38;4930788;29;20036;-94
2024/02/16 07:09:26;;;;;;;0.60;0.60;;;;;;;7.00;93.05;98444.06;4925450;29;20048;-94
2024/02/16 07:11:52;;;;;;;0.60;0.60;;;;;;;7.15;92.28;98446.41;4936289;29;20034;-92
2024/02/16 07:14:18;;;;;;;0.70;0.70;;;;;;;7.23;91.92;98441.38;4932692;29;20105;-93
2024/02/16 07:16:43;;;;;;;0.70;0.70;;;;;;;7.31;91.21;98454.09;4929397;29;20161;-92
2024/02/16 07:19:10;;;;;;;0.70;0.70;;;;;;;7.46;90.75;98451.09;4910163;29;20150;-92
2024/02/16 07:21:35;;;;;;;0.70;0.70;;;;;;;7.80;89.60;98450.53;4928111;29;20040;-93
2024/02/16 07:24:01;;;;;;;0.70;0.70;;;;;;;8.00;87.83;98456.59;4926965;29;20734;-92
2024/02/16 07:26:29;;;;;;;0.60;0.60;;;;;;;8.25;86.57;98454.75;4932670;29;20016;-93
2024/02/16 07:28:54;;;;;;;;;;;;;;;8.42;85.87;98450.94;4934239;28;20079;-92
2024/02/16 07:31:22;;;;;;;0.70;0.70;;;;;;;8.37;85.13;98445.47;4932625;28;19958;-91
2024/02/16 07:33:49;;;;;;;0.60;0.60;;;;;;;8.40;85.15;98445.56;4910630;29;20314;-92
2024/02/16 07:36:14;;;;;;;0.50;0.50;;;;;;;8.48;84.79;98445.84;4930727;29;20043;-94
2024/02/16 07:38:41;;;;;;;0.60;0.60;;;;;;;8.55;84.63;98444.25;4934254;29;20538;-91
2024/02/16 07:41:10;;;;;;;0.60;0.60;;;;;;;8.58;84.28;98444.38;4933909;29;20048;-91
2024/02/16 07:43:36;;;;;;;0.60;0.60;;;;;;;8.81;83.80;98447.75;4932788;28;20074;-92
2024/02/16 07:46:03;;;;;;;0.55;0.55;;;;;;;9.08;82.27;98445.03;4931449;29;20048;-94
2024/02/16 07:48:29;;;;;;;0.60;0.60;;;;;;;9.30;81.21;98450.16;4916811;29;20031;-94
2024/02/16 07:50:59;;;;;;;0.50;0.50;;;;;;;9.40;80.68;98454.91;4913635;29;20070;-95
2024/02/16 07:53:25;;;;;;;0.57;0.57;;;;;;;9.15;81.48;98453.28;4926806;29;20461;-94
2024/02/16 07:55:51;;;;;;;0.50;0.50;;;;;;;8.97;82.12;98464.25;4909647;29;20036;-94
2024/02/16 07:58:18;;;;;;;0.57;0.57;;;;;;;8.74;84.11;98465.28;4916284;29;20040;-94
2024/02/16 08:00:44;;;;;;;0.52;0.52;;;;;;;8.84;83.74;98462.06;4930561;29;20040;-94
2024/02/16 08:03:10;;;;;;;0.60;0.60;;;;;;;8.86;83.38;98465.69;4942704;29;20024;-94
2024/02/16 08:05:40;;;;;;;0.60;0.60;;;;;;;8.90;83.57;98464.88;4924815;29;20035;-95
2024/02/16 08:08:06;;;;;;;0.60;0.60;;;;;;;8.98;83.02;98470.47;4913913;29;20040;-95
2024/02/16 08:10:31;;;;;;;0.60;0.60;;;;;;;9.10;82.46;98470.88;4914479;29;20107;-93
2024/02/16 08:12:58;;;;;;;0.60;0.60;;;;;;;9.29;81.86;98472.28;4931348;29;20039;-92
2024/02/16 08:15:25;;;;;;;;;;;;;;;9.19;81.99;98467.53;4930346;29;20084;-93
2024/02/16 08:17:52;;;;;;;0.60;0.60;;;;;;;9.07;82.66;98477.84;4943562;29;19926;-95
2024/02/16 08:20:20;;;;;;;0.60;0.60;;;;;;;9.16;81.71;98472.81;4923102;29;20060;-95
2024/02/16 08:22:46;;;;;;;0.50;0.50;;;;;;;9.12;82.08;98478.88;4921802;29;20104;-92
2024/02/16 08:25:13;;;;;;;0.57;0.57;;;;;;;9.04;82.41;98477.72;4922683;29;20024;-93
2024/02/16 08:27:44;;;;;;;0.50;0.50;;;;;;;9.14;82.00;98477.16;4935274;29;20087;-93
2024/02/16 08:30:11;;;;;;;0.60;0.60;;;;;;;9.31;81.64;98473.25;4936218;29;20036;-94
2024/02/16 08:32:37;;;;;;;0.50;0.50;;;;;;;9.55;80.94;98473.06;4941844;29;20059;-92
2024/02/16 08:35:03;;;;;;;0.60;0.60;;;;;;;9.73;80.13;98472.69;4947142;29;20044;-93
2024/02/16 08:37:28;;;;;;;0.50;0.50;;;;;;;10.00;78.77;98478.78;4922577;29;20038;-92
2024/02/16 08:39:55;;;;;;;0.50;0.50;;;;;;;10.41;77.50;98476.34;4917088;29;20044;-95
2024/02/16 08:42:22;;;;;;;0.60;0.60;;;;;;;10.91;75.44;98471.34;4929414;29;20044;-94
2024/02/16 08:52:47;;;;;;;0.40;0.40;;;;;;;12.70;68.30;98463.38;5189950;23;20043;-93
2024/02/16 08:55:14;;;;;;;0.30;0.30;;;;;;;12.85;67.76;98466.28;4963901;28;20023;-92
2024/02/16 08:57:40;;;;;;;0.40;0.40;;;;;;;12.83;67.41;98460.00;4969694;28;20179;-92
2024/02/16 09:00:13;;;;;;;0.30;0.30;;;;;;;12.93;66.85;98461.94;4955499;28;20087;-92
2024/02/16 09:02:39;;;;;;;0.40;0.40;;;;;;;13.00;66.93;98461.16;4969964;28;20027;-92
2024/02/16 09:05:05;;;;;;;0.40;0.40;;;;;;;12.86;67.44;98469.88;4978725;28;20059;-93
2024/02/16 09:07:31;;;;;;;0.40;0.40;;;;;;;13.12;66.04;98460.44;4968281;28;20024;-94
2024/02/16 09:09:58;;;;;;;0.40;0.40;;;;;;;13.31;65.93;98456.28;4979839;28;20075;-93
2024/02/16 09:12:24;;;;;;;0.30;0.30;;;;;;;13.59;65.50;98454.88;4964186;28;20032;-92
2024/02/16 09:14:51;;;;;;;0.30;0.30;;;;;;;13.97;64.04;98455.31;4970145;28;20054;-94
2024/02/16 09:17:19;;;;;;;0.40;0.40;;;;;;;14.49;62.29;98460.38;4959766;28;20031;-94
2024/02/16 09:19:45;;;;;;;0.30;0.30;;;;;;;14.99;60.73;98452.69;4961584;29;20300;-94
2024/02/16 09:22:15;;;;;;;0.30;0.30;;;;;;;15.57;58.80;98458.47;4951949;28;20393;-95
2024/02/16 09:24:47;;;;;;;0.30;0.30;;;;;;;16.89;55.12;98464.19;4969927;28;20039;-93
2024/02/16 09:27:14;;;;;;;0.30;0.30;;;;;;;19.22;48.48;98447.78;4955321;28;20093;-94
2024/02/16 09:29:40;;;;;;;0.30;0.30;;;;;;;18.84;48.32;98464.34;4959146;29;20106;-94
2024/02/16 09:32:09;;;;;;;0.10;0.10;;;;;;;19.48;47.34;98459.22;4939077;29;20031;-95
2024/02/16 09:34:35;;;;;;;0.20;0.20;;;;;;;19.41;47.33;98459.31;4956815;28;20047;-94
2024/02/16 09:37:01;;;;;;;0.20;0.20;;;;;;;19.94;46.17;98457.81;4954777;29;20046;-93
2024/02/16 09:39:28;;;;;;;0.17;0.17;;;;;;;19.80;45.60;98463.41;4939516;28;20032;-95
2024/02/16 09:41:54;;;;;;;0.10;0.10;;;;;;;20.17;44.03;98458.41;4965209;28;20164;-94
2024/02/16 09:44:23;;;;;;;0.13;0.13;;;;;;;20.20;44.02;98452.94;4952045;29;20039;-93
2024/02/16 09:46:50;;;;;;;0.20;0.20;;;;;;;21.15;40.83;98461.44;4933663;29;20103;-95
2024/02/16 09:49:17;;;;;;;0.15;0.15;;;;;;;21.03;38.04;98454.38;4941137;29;20055;-94
2024/02/16 09:51:44;;;;;;;0.10;0.10;;;;;;;21.49;38.58;98456.31;4945651;29;20043;-93
2024/02/16 09:54:11;;;;;;;0.10;0.10;;;;;;;22.63;35.00;98447.56;4965058;28;20063;-92
2024/02/16 09:56:37;;;;;;;0.10;0.10;;;;;;;22.32;35.63;98457.34;4966926;28;20039;-93
2024/02/16 09:59:03;;;;;;;0.10;0.10;;;;;;;21.94;36.09;98459.97;4963022;29;20048;-94
2024/02/16 10:01:31;;;;;;;0.10;0.10;;;;;;;21.96;36.08;98463.53;4955057;28;20322;-94
2024/02/16 10:04:07;;;;;;;0.10;0.10;;;;;;;22.75;34.18;98463.56;4956619;29;20506;-94
2024/02/16 10:06:46;;;;;;;0.10;0.10;;;;;;;22.03;35.18;98469.72;4935568;29;20034;-94
2024/02/16 10:09:25;;;;;;;0.10;0.10;;;;;;;22.44;34.48;98477.00;4954128;29;20078;-95
2024/02/16 10:11:52;;;;;;;0.10;0.10;;;;;;;21.78;35.42;98481.09;4927945;29;20049;-94
2024/02/16 10:14:21;;;;;;;;;;;;;;;22.03;35.92;98478.75;4948777;29;20035;-93
2024/02/16 10:16:58;;;;;;;0.10;0.10;;;;;;;22.69;34.16;98482.78;4945877;29;20024;-95
2024/02/16 10:19:27;;;;;;;0.10;0.10;;;;;;;21.63;36.49;98485.94;4959013;29;20043;-95
2024/02/16 10:21:53;;;;;;;0.10;0.10;;;;;;;21.28;36.99;98487.44;4952065;29;20106;-93
2024/02/16 10:24:23;;;;;;;;;;;;;;;20.96;37.69;98501.53;4963880;29;20027;-93
2024/02/16 10:26:55;;;;;;;0.10;0.10;;;;;;;21.36;37.52;98498.19;4975510;28;20210;-93
2024/02/16 10:29:27;;;;;;;0.10;0.10;;;;;;;20.60;38.73;98508.41;4964082;29;20044;-92
2024/02/16 10:31:52;;;;;;;0.10;0.10;;;;;;;19.53;41.22;98510.56;4964662;29;20042;-94
2024/02/16 10:34:24;;;;;;;0.20;0.20;;;;;;;19.84;40.65;98511.19;4969676;29;20040;-93
2024/02/16 10:36:52;;;;;;;0.10;0.10;;;;;;;19.88;40.71;98509.31;4957019;28;20118;-93
2024/02/16 10:39:18;;;;;;;0.10;0.10;;;;;;;19.73;41.04;98513.09;4968479;29;20266;-93
2024/02/16 10:41:48;;;;;;;0.20;0.20;;;;;;;20.56;40.20;98509.41;4974240;28;20015;-92
2024/02/16 10:44:17;;;;;;;0.10;0.10;;;;;;;21.52;37.64;98516.00;4952706;28;20031;-92
2024/02/16 10:46:44;;;;;;;0.20;0.20;;;;;;;22.09;37.10;98513.09;4966078;28;20083;-94
2024/02/16 10:49:10;;;;;;;0.20;0.20;;;;;;;22.82;36.00;98513.31;4934876;29;20027;-95
2024/02/16 10:51:40;;;;;;;0.10;0.10;;;;;;;21.98;37.31;98515.09;4965709;28;20048;-94
2024/02/16 10:54:16;;;;;;;0.20;0.20;;;;;;;21.78;37.40;98519.09;4964857;28;20035;-92
2024/02/16 11:26:11;;;;;;;0.20;0.20;;;;;;;20.06;40.96;98532.59;4912128;29;20101;-89
2024/02/16 11:28:48;;;;;;;0.10;0.10;;;;;;;19.39;41.61;98523.34;4912880;29;20379;-90
2024/02/16 11:31:24;;;;;;;0.20;0.20;;;;;;;19.15;43.45;98527.16;4913310;29;20048;-91
2024/02/16 11:33:54;;;;;;;0.20;0.20;;;;;;;19.19;42.57;98532.53;4888914;29;20041;-91
2024/02/16 11:36:24;;;;;;;0.20;0.20;;;;;;;19.18;42.63;98524.44;4910053;29;20068;-90
2024/02/16 11:38:50;;;;;;;0.10;0.10;;;;;;;18.91;42.21;98522.84;4893317;29;20447;-91
2024/02/16 11:41:16;;;;;;;0.20;0.20;;;;;;;19.02;41.81;98522.75;4909267;29;20056;-92
2024/02/16 11:43:42;;;;;;;0.20;0.20;;;;;;;19.10;42.16;98526.31;4921468;29;20070;-92
2024/02/16 11:46:13;;;;;;;0.20;0.20;;;;;;;18.77;43.11;98522.06;4905335;29;20033;-90
2024/02/16 11:48:40;;;;;;;0.20;0.20;;;;;;;18.52;43.22;98524.88;4903243;29;20276;-91
2024/02/16 11:51:06;;;;;;;0.20;0.20;;;;;;;18.58;44.02;98523.94;4909290;29;20052;-93
2024/02/16 11:53:35;;;;;;;0.20;0.20;;;;;;;18.63;43.49;98517.59;4945633;29;20458;-93
2024/02/16 11:56:01;;;;;;;0.20;0.20;;;;;;;18.83;42.82;98511.19;4955622;29;20583;-95
2024/02/16 11:58:27;;;;;;;0.20;0.20;;;;;;;18.95;42.87;98519.22;4943984;29;20036;-92
2024/02/16 12:00:54;;;;;;;0.20;0.20;;;;;;;18.99;42.78;98526.41;4953558;29;20043;-91
2024/02/16 12:03:21;;;;;;;0.23;0.23;;;;;;;19.06;42.32;98513.72;4941751;29;20134;-94
2024/02/16 12:05:53;;;;;;;0.20;0.20;;;;;;;18.96;42.36;98519.19;4934968;29;20512;-92
2024/02/16 12:08:20;;;;;;;0.20;0.20;;;;;;;19.39;42.06;98509.81;4929041;29;20163;-92
2024/02/16 12:10:52;;;;;;;0.20;0.20;;;;;;;19.72;41.41;98520.34;4956021;28;20048;-94
2024/02/16 12:13:21;;;;;;;0.20;0.20;;;;;;;19.69;41.69;98520.38;4926740;29;20074;-95
2024/02/16 12:15:56;;;;;;;0.20;0.20;;;;;;;19.69;41.74;98514.03;4942341;29;20043;-92
2024/02/16 12:18:26;;;;;;;0.20;0.20;;;;;;;19.82;41.11;98514.81;4939255;29;20028;-91
2024/02/16 12:21:19;;;;;;;0.20;0.20;;;;;;;19.79;40.37;98509.47;4947828;29;20119;-90